Time;durP1;ratioP1;P1;durP2;ratioP2;P2;SDS_P1;SDS_P2;PMS_P1;PMS_P2;Temp;Humidity;BMP_temperature;BMP_pressure;BME280_temperature;BME280_humidity;BME280_pressure;Samples;Min_cycle;Max_cycle;Signal;HPM_P1;HPM_P2
2023/07/05 00:01:59;;;;;;;8.18;3.05;;;;;;;;;;5033801;28;20052;-73
2023/07/05 00:04:25;;;;;;;12.80;3.92;;;;;;;;;;5039093;28;20036;-73
2023/07/05 00:06:54;;;;;;;10.80;3.42;;;;;;;;;;5032144;28;20136;-74
2023/07/05 00:09:20;;;;;;;8.02;3.42;;;;;;;;;;5034854;28;20505;-73
2023/07/05 00:11:47;;;;;;;7.25;3.13;;;;;;;;;;5040872;28;20116;-72
2023/07/05 00:14:13;;;;;;;10.73;3.42;;;;;;;;;;5036178;28;20497;-72
2023/07/05 00:16:39;;;;;;;8.95;3.28;;;;;;;;;;5057132;28;20049;-72
2023/07/05 00:19:07;;;;;;;9.18;3.47;;;;;;;;;;5039840;28;20032;-73
2023/07/05 00:21:34;;;;;;;10.52;3.63;;;;;;;;;;5033176;28;20099;-72
2023/07/05 00:24:00;;;;;;;7.60;3.17;;;;;;;;;;5040079;28;20025;-72
2023/07/05 00:26:26;;;;;;;11.63;3.47;;;;;;;;;;5037132;28;20033;-72
2023/07/05 00:28:52;;;;;;;9.00;3.88;;;;;;;;;;5039264;28;20094;-72
2023/07/05 00:31:18;;;;;;;6.18;3.42;;;;;;;;;;5037256;28;20304;-72
2023/07/05 00:33:44;;;;;;;10.27;4.22;;;;;;;;;;5034715;28;20061;-72
2023/07/05 00:36:10;;;;;;;9.40;4.05;;;;;;;;;;5035494;28;20051;-73
2023/07/05 00:38:36;;;;;;;15.15;4.07;;;;;;;;;;5032710;28;20039;-72
2023/07/05 00:41:02;;;;;;;11.70;4.60;;;;;;;;;;5048977;28;20025;-72
2023/07/05 00:43:28;;;;;;;11.55;3.45;;;;;;;;;;5037238;28;20029;-72
2023/07/05 00:46:03;;;;;;;14.50;4.53;;;;;;;;;;5052957;28;20040;-72
2023/07/05 00:48:29;;;;;;;8.05;3.72;;;;;;;;;;5041082;28;20033;-72
2023/07/05 00:50:57;;;;;;;8.75;3.60;;;;;;;;;;5040292;28;20028;-72
2023/07/05 00:53:24;;;;;;;10.75;4.72;;;;;;;;;;5039616;28;20533;-72
2023/07/05 00:55:53;;;;;;;8.27;4.20;;;;;;;;;;5035241;28;20022;-72
2023/07/05 00:58:21;;;;;;;7.32;3.75;;;;;;;;;;5040845;28;20390;-72
2023/07/05 01:00:47;;;;;;;8.85;4.30;;;;;;;;;;5039263;28;20612;-72
2023/07/05 01:03:16;;;;;;;12.88;4.38;;;;;;;;;;5036367;28;20056;-72
2023/07/05 01:05:42;;;;;;;11.70;4.20;;;;;;;;;;5043983;28;20097;-72
2023/07/05 01:08:10;;;;;;;11.35;4.68;;;;;;;;;;5043277;28;20116;-73
2023/07/05 01:10:36;;;;;;;12.85;4.45;;;;;;;;;;5038787;28;21527;-73
2023/07/05 01:13:14;;;;;;;9.68;4.90;;;;;;;;;;5036643;28;20099;-72
2023/07/05 01:15:43;;;;;;;10.48;5.50;;;;;;;;;;5036732;28;20096;-72
2023/07/05 01:18:30;;;;;;;12.23;4.47;;;;;;;;;;5040605;28;20037;-72
2023/07/05 01:21:09;;;;;;;11.80;5.05;;;;;;;;;;5038433;28;20060;-72
2023/07/05 01:23:54;;;;;;;10.07;5.13;;;;;;;;;;5042007;28;20029;-72
2023/07/05 01:26:39;;;;;;;16.08;4.93;;;;;;;;;;5035054;28;20032;-72
2023/07/05 01:29:06;;;;;;;12.88;5.35;;;;;;;;;;5038138;28;20037;-73
2023/07/05 01:31:32;;;;;;;12.82;5.22;;;;;;;;;;5037081;28;20021;-71
2023/07/05 01:34:08;;;;;;;10.90;4.85;;;;;;;;;;5037935;28;20467;-71
2023/07/05 01:36:35;;;;;;;13.32;5.60;;;;;;;;;;5038244;28;20044;-72
2023/07/05 01:39:01;;;;;;;15.40;6.00;;;;;;;;;;5054825;28;20029;-73
2023/07/05 01:41:27;;;;;;;14.63;5.05;;;;;;;;;;5036236;28;20090;-72
2023/07/05 01:43:53;;;;;;;11.85;5.07;;;;;;;;;;5039893;28;20632;-73
2023/07/05 01:46:26;;;;;;;18.92;6.07;;;;;;;;;;5039680;28;20025;-72
2023/07/05 01:49:02;;;;;;;12.43;5.47;;;;;;;;;;5036967;28;20116;-72
2023/07/05 01:51:33;;;;;;;12.05;6.05;;;;;;;;;;5035301;28;20479;-72
2023/07/05 01:54:09;;;;;;;16.88;6.13;;;;;;;;;;5038865;28;20091;-72
2023/07/05 01:56:40;;;;;;;12.05;6.63;;;;;;;;;;5039685;28;20101;-72
2023/07/05 01:59:06;;;;;;;11.93;6.13;;;;;;;;;;5032413;28;20071;-72
2023/07/05 02:01:34;;;;;;;13.90;6.03;;;;;;;;;;5038962;28;20056;-72
2023/07/05 02:04:01;;;;;;;19.73;6.28;;;;;;;;;;5053006;28;20033;-72
2023/07/05 02:06:28;;;;;;;13.55;6.85;;;;;;;;;;5037721;28;20057;-72
2023/07/05 02:08:54;;;;;;;14.63;5.88;;;;;;;;;;5035974;28;20032;-73
2023/07/05 02:11:20;;;;;;;15.50;6.10;;;;;;;;;;5034470;28;20041;-72
2023/07/05 02:13:46;;;;;;;17.13;7.25;;;;;;;;;;5035547;28;20021;-73
2023/07/05 02:16:12;;;;;;;14.38;6.72;;;;;;;;;;5036002;28;20120;-72
2023/07/05 02:18:38;;;;;;;17.85;6.55;;;;;;;;;;5040294;28;20502;-71
2023/07/05 02:21:08;;;;;;;17.15;7.07;;;;;;;;;;5031387;28;20029;-72
2023/07/05 02:23:34;;;;;;;14.75;6.75;;;;;;;;;;5036187;28;20517;-73
2023/07/05 02:26:04;;;;;;;11.60;6.68;;;;;;;;;;5035899;28;20044;-72
2023/07/05 02:28:30;;;;;;;9.48;5.95;;;;;;;;;;5036921;28;20083;-72
2023/07/05 02:30:56;;;;;;;13.82;6.47;;;;;;;;;;5040153;28;20234;-72
2023/07/05 02:33:22;;;;;;;13.63;6.80;;;;;;;;;;5022598;28;20395;-73
2023/07/05 02:35:48;;;;;;;15.35;6.47;;;;;;;;;;5036822;28;20032;-72
2023/07/05 02:38:14;;;;;;;17.20;7.15;;;;;;;;;;5036120;28;20046;-72
2023/07/05 02:40:40;;;;;;;13.38;7.97;;;;;;;;;;5030756;28;21140;-73
2023/07/05 02:43:06;;;;;;;12.93;7.47;;;;;;;;;;5038720;28;20124;-73
2023/07/05 02:45:32;;;;;;;21.30;13.65;;;;;;;;;;5050832;28;20108;-74
2023/07/05 02:47:58;;;;;;;17.20;8.40;;;;;;;;;;5038933;28;20033;-73
2023/07/05 02:50:24;;;;;;;11.23;7.43;;;;;;;;;;5034598;28;20037;-73
2023/07/05 02:52:50;;;;;;;20.98;8.82;;;;;;;;;;5035586;28;20473;-74
2023/07/05 02:55:16;;;;;;;19.65;9.63;;;;;;;;;;5037065;28;20047;-74
2023/07/05 02:57:42;;;;;;;15.95;8.38;;;;;;;;;;5050908;28;20076;-74
2023/07/05 03:00:09;;;;;;;19.27;9.38;;;;;;;;;;5042341;28;20085;-74
2023/07/05 03:02:35;;;;;;;18.17;9.60;;;;;;;;;;5036993;28;20025;-74
2023/07/05 03:05:08;;;;;;;17.70;8.77;;;;;;;;;;5036355;28;20166;-73
2023/07/05 03:07:34;;;;;;;16.02;9.63;;;;;;;;;;5039987;28;20029;-72
2023/07/05 03:10:00;;;;;;;18.85;9.57;;;;;;;;;;5037346;28;20083;-72
2023/07/05 03:12:26;;;;;;;17.20;9.23;;;;;;;;;;5038809;28;20116;-72
2023/07/05 03:14:52;;;;;;;19.17;10.35;;;;;;;;;;5037696;28;20098;-74
2023/07/05 03:17:18;;;;;;;20.48;11.32;;;;;;;;;;5036112;28;20045;-73
2023/07/05 03:19:44;;;;;;;17.88;11.30;;;;;;;;;;5034205;28;20034;-74
2023/07/05 03:22:10;;;;;;;22.38;11.25;;;;;;;;;;5040525;28;20055;-74
2023/07/05 03:24:36;;;;;;;21.55;11.70;;;;;;;;;;5042315;28;20156;-73
2023/07/05 03:27:03;;;;;;;19.23;11.25;;;;;;;;;;5052933;28;20052;-73
2023/07/05 03:29:29;;;;;;;20.27;11.10;;;;;;;;;;5043627;28;21667;-72
2023/07/05 03:31:55;;;;;;;21.70;12.02;;;;;;;;;;5052912;28;20028;-72
2023/07/05 03:34:21;;;;;;;21.55;12.13;;;;;;;;;;5048682;28;20041;-73
2023/07/05 03:36:47;;;;;;;21.25;12.55;;;;;;;;;;5053631;28;20056;-73
2023/07/05 03:39:16;;;;;;;16.73;12.27;;;;;;;;;;5048909;28;20029;-73
2023/07/05 03:41:42;;;;;;;23.02;12.07;;;;;;;;;;5046802;28;20429;-72
2023/07/05 03:44:08;;;;;;;14.77;11.52;;;;;;;;;;5043912;28;20373;-73
2023/07/05 03:46:34;;;;;;;19.80;10.57;;;;;;;;;;5055825;28;20370;-73
2023/07/05 03:49:00;;;;;;;18.73;11.80;;;;;;;;;;5055311;28;20036;-73
2023/07/05 03:51:26;;;;;;;15.45;11.68;;;;;;;;;;5048711;28;20041;-72
2023/07/05 03:53:53;;;;;;;15.88;10.23;;;;;;;;;;5052364;28;20037;-73
2023/07/05 03:56:19;;;;;;;10.70;9.35;;;;;;;;;;5044076;28;20037;-72
2023/07/05 03:58:45;;;;;;;19.75;11.52;;;;;;;;;;5045237;28;20048;-72
2023/07/05 04:01:19;;;;;;;17.88;11.68;;;;;;;;;;5049089;28;20451;-73
2023/07/05 04:03:46;;;;;;;16.45;10.98;;;;;;;;;;5059823;28;20087;-72
2023/07/05 04:06:12;;;;;;;16.77;11.30;;;;;;;;;;5057898;28;20025;-72
2023/07/05 04:08:42;;;;;;;16.38;10.57;;;;;;;;;;5056105;28;20078;-73
2023/07/05 04:11:08;;;;;;;15.70;11.90;;;;;;;;;;5050519;28;20057;-73
2023/07/05 04:13:34;;;;;;;12.57;10.25;;;;;;;;;;5051870;28;20055;-73
2023/07/05 04:16:01;;;;;;;12.88;9.70;;;;;;;;;;5043022;28;20044;-73
2023/07/05 04:18:28;;;;;;;15.30;9.13;;;;;;;;;;5055794;28;20512;-73
2023/07/05 04:20:54;;;;;;;12.18;9.23;;;;;;;;;;5054412;28;20070;-73
2023/07/05 04:23:20;;;;;;;14.38;9.73;;;;;;;;;;5052018;28;20020;-72
2023/07/05 04:25:46;;;;;;;10.32;8.32;;;;;;;;;;5074465;28;20033;-73
2023/07/05 04:28:12;;;;;;;14.52;7.43;;;;;;;;;;5056948;28;20370;-72
2023/07/05 04:30:38;;;;;;;13.30;6.68;;;;;;;;;;5053550;28;20086;-72
2023/07/05 04:33:04;;;;;;;9.57;5.03;;;;;;;;;;5051366;28;20036;-72
2023/07/05 04:35:30;;;;;;;8.88;5.50;;;;;;;;;;5050102;28;20045;-73
2023/07/05 04:37:56;;;;;;;11.00;4.80;;;;;;;;;;5060478;28;20036;-72
2023/07/05 04:40:22;;;;;;;8.52;5.43;;;;;;;;;;5057787;28;20033;-73
2023/07/05 04:42:49;;;;;;;6.80;3.58;;;;;;;;;;5050959;28;20046;-73
2023/07/05 04:45:16;;;;;;;6.88;3.47;;;;;;;;;;5055533;28;20393;-72
2023/07/05 04:47:42;;;;;;;7.18;4.03;;;;;;;;;;5056343;28;20013;-72
2023/07/05 04:50:08;;;;;;;7.72;3.90;;;;;;;;;;5055808;28;20041;-72
2023/07/05 04:52:34;;;;;;;5.88;3.47;;;;;;;;;;5052265;28;20029;-72
2023/07/05 04:55:00;;;;;;;7.85;3.75;;;;;;;;;;5039139;28;20097;-72
2023/07/05 04:57:28;;;;;;;9.43;4.78;;;;;;;;;;5045961;28;20080;-73
2023/07/05 04:59:54;;;;;;;8.15;3.72;;;;;;;;;;5055534;28;20036;-73
2023/07/05 05:02:20;;;;;;;12.25;3.80;;;;;;;;;;5043412;28;20422;-72
2023/07/05 05:04:46;;;;;;;6.28;3.17;;;;;;;;;;5052761;28;20033;-72
2023/07/05 05:07:13;;;;;;;6.07;3.30;;;;;;;;;;5046306;28;20091;-72
2023/07/05 05:09:40;;;;;;;8.25;3.53;;;;;;;;;;5057524;28;20020;-74
2023/07/05 05:12:06;;;;;;;7.22;4.13;;;;;;;;;;5054364;28;20032;-73
2023/07/05 05:14:33;;;;;;;5.13;3.17;;;;;;;;;;5052944;28;20037;-72
2023/07/05 05:16:59;;;;;;;5.85;3.22;;;;;;;;;;5051463;28;20039;-74
2023/07/05 05:19:25;;;;;;;4.68;3.15;;;;;;;;;;5050136;28;20083;-73
2023/07/05 05:21:51;;;;;;;7.28;3.35;;;;;;;;;;5059463;28;20036;-73
2023/07/05 05:24:17;;;;;;;10.57;3.50;;;;;;;;;;5052974;28;20041;-73
2023/07/05 05:26:43;;;;;;;8.15;3.97;;;;;;;;;;5057018;28;20083;-73
2023/07/05 05:29:09;;;;;;;5.45;3.05;;;;;;;;;;5046915;28;20064;-72
2023/07/05 05:31:35;;;;;;;5.70;3.83;;;;;;;;;;5052785;28;20041;-72
2023/07/05 05:34:02;;;;;;;6.10;3.40;;;;;;;;;;5053814;28;20025;-72
2023/07/05 05:36:28;;;;;;;7.25;4.30;;;;;;;;;;5057038;28;20033;-72
2023/07/05 05:38:54;;;;;;;7.18;3.63;;;;;;;;;;5048758;28;20025;-72
2023/07/05 05:41:20;;;;;;;7.88;3.80;;;;;;;;;;5046252;28;20344;-72
2023/07/05 05:43:46;;;;;;;8.00;3.40;;;;;;;;;;5054064;28;20120;-72
2023/07/05 05:46:12;;;;;;;5.35;3.63;;;;;;;;;;5041074;28;20029;-72
2023/07/05 05:48:38;;;;;;;6.47;4.03;;;;;;;;;;5043240;28;20033;-72
2023/07/05 05:51:04;;;;;;;6.65;3.42;;;;;;;;;;5052453;28;20087;-74
2023/07/05 05:53:30;;;;;;;4.55;3.45;;;;;;;;;;5024536;28;20045;-73
2023/07/05 05:55:57;;;;;;;4.30;3.00;;;;;;;;;;5042421;28;20037;-73
2023/07/05 05:58:23;;;;;;;5.75;3.60;;;;;;;;;;5049918;28;20033;-74
2023/07/05 06:00:49;;;;;;;7.30;3.97;;;;;;;;;;5051106;28;20054;-75
2023/07/05 06:03:15;;;;;;;9.07;4.05;;;;;;;;;;5038755;28;20478;-76
2023/07/05 06:05:41;;;;;;;7.18;4.10;;;;;;;;;;5047624;28;20075;-73
2023/07/05 06:08:08;;;;;;;6.97;3.83;;;;;;;;;;5044672;28;20494;-74
2023/07/05 06:10:34;;;;;;;6.75;4.22;;;;;;;;;;5043578;28;20068;-72
2023/07/05 06:13:00;;;;;;;6.78;4.07;;;;;;;;;;5043003;28;20502;-72
2023/07/05 06:15:27;;;;;;;4.80;3.80;;;;;;;;;;5040586;28;20034;-72
2023/07/05 06:17:53;;;;;;;6.22;4.38;;;;;;;;;;5052319;28;20511;-72
2023/07/05 06:20:23;;;;;;;5.53;3.95;;;;;;;;;;5039873;28;20076;-74
2023/07/05 06:22:49;;;;;;;4.88;3.33;;;;;;;;;;5049800;28;20506;-73
2023/07/05 06:25:15;;;;;;;7.30;3.03;;;;;;;;;;5046287;28;20036;-73
2023/07/05 06:27:41;;;;;;;4.25;3.35;;;;;;;;;;5053249;28;20120;-73
2023/07/05 06:30:07;;;;;;;7.07;3.38;;;;;;;;;;5050216;28;20037;-74
2023/07/05 06:32:34;;;;;;;5.85;2.85;;;;;;;;;;5042862;28;20024;-72
2023/07/05 06:35:01;;;;;;;6.65;3.70;;;;;;;;;;5044194;28;20208;-73
2023/07/05 06:37:27;;;;;;;6.95;2.83;;;;;;;;;;5042553;28;20053;-72
2023/07/05 06:39:53;;;;;;;6.75;2.97;;;;;;;;;;5046278;28;20028;-72
2023/07/05 06:42:19;;;;;;;5.00;2.70;;;;;;;;;;5050388;28;20040;-72
2023/07/05 06:44:45;;;;;;;3.17;2.30;;;;;;;;;;5044142;28;20033;-75
2023/07/05 06:47:11;;;;;;;6.95;2.45;;;;;;;;;;5051452;28;20037;-72
2023/07/05 06:49:37;;;;;;;5.30;1.85;;;;;;;;;;5049519;28;20037;-73
2023/07/05 06:52:06;;;;;;;4.43;2.00;;;;;;;;;;5050290;28;20501;-73
2023/07/05 06:54:32;;;;;;;7.03;2.33;;;;;;;;;;5045901;28;20036;-73
2023/07/05 06:56:59;;;;;;;5.88;2.42;;;;;;;;;;5040786;28;20053;-72
2023/07/05 06:59:25;;;;;;;6.10;2.60;;;;;;;;;;5038933;28;20028;-72
2023/07/05 07:01:51;;;;;;;4.32;2.60;;;;;;;;;;5049573;28;20110;-72
2023/07/05 07:04:17;;;;;;;5.18;2.28;;;;;;;;;;5051206;28;20107;-72
2023/07/05 07:06:43;;;;;;;3.83;2.47;;;;;;;;;;5041200;28;20726;-72
2023/07/05 07:09:12;;;;;;;9.10;3.30;;;;;;;;;;5044221;28;20032;-71
2023/07/05 07:11:38;;;;;;;5.47;2.47;;;;;;;;;;5036643;28;20037;-71
2023/07/05 07:14:05;;;;;;;6.90;2.70;;;;;;;;;;5039769;28;20032;-71
2023/07/05 07:16:31;;;;;;;6.82;2.60;;;;;;;;;;5049813;28;20231;-70
2023/07/05 07:18:59;;;;;;;3.45;2.50;;;;;;;;;;5042671;28;20047;-70
2023/07/05 07:21:25;;;;;;;4.28;2.33;;;;;;;;;;5035661;28;20462;-70
2023/07/05 07:23:52;;;;;;;2.83;2.10;;;;;;;;;;5036413;28;20024;-72
2023/07/05 07:26:22;;;;;;;4.90;1.88;;;;;;;;;;5044810;28;20143;-72
2023/07/05 07:28:49;;;;;;;4.30;1.52;;;;;;;;;;5053739;28;20627;-72
2023/07/05 07:31:20;;;;;;;13.40;2.05;;;;;;;;;;5040882;28;20029;-71
2023/07/05 07:33:46;;;;;;;1.13;1.00;;;;;;;;;;5034870;28;20040;-70
2023/07/05 07:36:14;;;;;;;6.60;1.00;;;;;;;;;;5035367;28;20045;-70
2023/07/05 07:38:40;;;;;;;3.33;1.00;;;;;;;;;;5032427;28;20491;-71
2023/07/05 07:41:13;;;;;;;1.77;1.00;;;;;;;;;;5044499;28;20028;-71
2023/07/05 07:43:39;;;;;;;5.00;1.67;;;;;;;;;;5059944;28;20041;-71
2023/07/05 07:46:09;;;;;;;3.38;1.10;;;;;;;;;;5052743;28;20037;-71
2023/07/05 07:48:35;;;;;;;3.08;0.85;;;;;;;;;;5052125;28;20086;-71
2023/07/05 07:51:01;;;;;;;0.50;0.45;;;;;;;;;;5053580;28;20481;-70
2023/07/05 07:53:27;;;;;;;1.50;0.70;;;;;;;;;;5041008;28;20044;-71
2023/07/05 07:55:53;;;;;;;2.25;0.73;;;;;;;;;;5041236;28;20089;-71
2023/07/05 07:58:19;;;;;;;2.20;0.65;;;;;;;;;;5040121;28;20259;-71
2023/07/05 08:00:45;;;;;;;4.63;1.88;;;;;;;;;;5048614;28;20486;-71
2023/07/05 08:03:11;;;;;;;3.45;0.68;;;;;;;;;;5039790;28;20033;-71
2023/07/05 08:05:37;;;;;;;4.20;1.98;;;;;;;;;;5046608;28;20033;-71
2023/07/05 08:08:03;;;;;;;2.63;0.90;;;;;;;;;;5048957;28;20064;-71
2023/07/05 08:10:29;;;;;;;1.83;0.80;;;;;;;;;;5046089;28;20098;-72
2023/07/05 08:12:57;;;;;;;2.47;1.30;;;;;;;;;;5050272;28;20951;-71
2023/07/05 08:15:23;;;;;;;1.95;0.55;;;;;;;;;;5035070;28;20158;-71
2023/07/05 08:17:50;;;;;;;1.63;0.52;;;;;;;;;;5044860;28;20398;-71
2023/07/05 08:20:16;;;;;;;1.58;0.55;;;;;;;;;;5033541;28;20029;-71
2023/07/05 08:22:43;;;;;;;3.38;0.70;;;;;;;;;;5049038;28;20443;-71
2023/07/05 08:25:09;;;;;;;2.00;0.68;;;;;;;;;;5037288;28;20033;-71
2023/07/05 08:27:35;;;;;;;5.93;0.90;;;;;;;;;;5043906;28;20033;-71
2023/07/05 08:30:01;;;;;;;3.58;1.02;;;;;;;;;;5040865;28;20032;-71
2023/07/05 08:32:27;;;;;;;5.30;1.40;;;;;;;;;;5051269;28;20040;-71
2023/07/05 08:34:53;;;;;;;6.18;1.05;;;;;;;;;;5059020;28;20041;-71
2023/07/05 08:37:19;;;;;;;5.63;1.33;;;;;;;;;;5051323;28;20052;-72
2023/07/05 08:39:46;;;;;;;5.05;1.40;;;;;;;;;;5048420;28;20033;-71
2023/07/05 08:42:12;;;;;;;5.80;1.92;;;;;;;;;;5037950;28;20024;-71
2023/07/05 08:45:01;;;;;;;13.75;3.58;;;;;;;;;;5048505;28;20509;-72
2023/07/05 08:47:29;;;;;;;11.20;2.53;;;;;;;;;;5049735;28;20040;-72
2023/07/05 08:50:31;;;;;;;9.82;2.47;;;12.30;99.90;;;;;;5036502;28;20020;-71
2023/07/05 08:53:01;;;;;;;22.35;3.33;;;;;;;;;;5050309;28;20567;-71
2023/07/05 08:55:31;;;;;;;12.52;1.70;;;;;;;;;;5046852;28;20467;-71
2023/07/05 08:57:57;;;;;;;7.05;1.10;;;;;;;;;;5048191;28;20120;-71
2023/07/05 09:00:39;;;;;;;9.80;1.80;;;;;;;;;;5059909;28;20114;-72
2023/07/05 09:03:15;;;;;;;10.98;1.35;;;;;;;;;;5035157;28;20032;-72
2023/07/05 09:05:47;;;;;;;10.60;1.40;;;;;;;;;;5041483;28;20033;-72
2023/07/05 09:08:29;;;;;;;9.77;1.10;;;;;;;;;;5055323;28;20189;-72
2023/07/05 09:10:56;;;;;;;14.05;1.27;;;;;;;;;;5064950;28;20074;-71
2023/07/05 09:13:34;;;;;;;8.63;1.50;;;;;;;;;;5051610;28;20040;-73
2023/07/05 09:16:10;;;;;;;8.50;0.70;;;;;;;;;;5048522;28;20538;-71
2023/07/05 09:18:52;;;;;;;8.80;1.27;;;;;;;;;;5046152;28;20028;-75
2023/07/05 09:21:30;;;;;;;8.57;1.00;;;;;;;;;;5050418;28;20505;-74
2023/07/05 09:24:00;;;;;;;5.40;1.25;;;;;;;;;;5047328;28;20099;-71
2023/07/05 09:26:37;;;;;;;6.65;0.68;;;;;;;;;;5053332;28;20020;-71
2023/07/05 09:29:22;;;;;;;3.53;1.05;;;;;;;;;;5047346;28;20072;-72
2023/07/05 09:31:49;;;;;;;3.03;0.50;;;;;;;;;;5044537;28;20032;-72
2023/07/05 09:34:26;;;;;;;7.07;0.50;;;;;;;;;;5032645;28;20509;-71
2023/07/05 09:36:52;;;;;;;5.43;1.00;;;;;;;;;;5035768;28;20048;-72
2023/07/05 09:39:36;;;;;;;5.93;0.47;;;;;;;;;;5042805;28;20033;-71
2023/07/05 09:42:04;;;;;;;7.57;0.63;;;;;;;;;;5041157;28;20036;-71
2023/07/05 09:44:31;;;;;;;5.55;0.50;;;;;;;;;;5058440;28;20469;-71
2023/07/05 09:46:58;;;;;;;5.15;0.60;;;;;;;;;;5047903;28;20537;-71
2023/07/05 09:49:26;;;;;;;8.00;0.85;;;;;;;;;;5059700;28;20491;-71
2023/07/05 09:51:53;;;;;;;7.90;1.38;;;;;;;;;;5042964;28;20068;-72
2023/07/05 09:54:22;;;;;;;7.25;1.38;;;;;;;;;;5051269;28;20398;-71
2023/07/05 09:57:06;;;;;;;5.90;0.50;;;;;;;;;;5052721;28;20084;-72
2023/07/05 09:59:33;;;;;;;3.03;0.60;;;;;;;;;;5046266;28;20060;-72
2023/07/05 10:02:12;;;;;;;4.00;0.60;;;;;;;;;;5040396;28;20109;-72
2023/07/05 10:04:45;;;;;;;3.20;0.73;;;;;;;;;;5043864;28;20032;-72
2023/07/05 10:07:15;;;;;;;3.97;0.73;;;;;;;;;;5045761;28;20048;-73
2023/07/05 10:09:53;;;;;;;7.53;0.80;;;;;;;;;;5052118;28;20335;-72
2023/07/05 10:12:20;;;;;;;2.20;0.77;;;;;;;;;;5045419;28;20115;-72
2023/07/05 10:14:53;;;;;;;3.78;1.00;;;;;;;;;;5038112;28;20037;-72
2023/07/05 10:17:19;;;;;;;1.27;0.73;;;;;;;;;;5044110;28;20047;-73
2023/07/05 10:19:50;;;;;;;1.85;0.80;;;;;;;;;;5050066;28;20463;-71
2023/07/05 10:22:26;;;;;;;2.50;0.60;;;;;;;;;;5041900;28;20017;-70
2023/07/05 10:24:53;;;;;;;6.75;0.73;;;;;;;;;;5040762;28;20032;-71
2023/07/05 10:27:22;;;;;;;3.35;1.25;;;;;;;;;;5051713;28;20393;-72
2023/07/05 10:29:49;;;;;;;2.78;0.50;;;;;;;;;;5037887;28;20036;-71
2023/07/05 10:32:19;;;;;;;2.88;0.65;;;;;;;;;;5048502;28;20029;-71
2023/07/05 10:34:49;;;;;;;4.03;0.80;;;;;;;;;;5042599;28;20509;-71
2023/07/05 10:37:26;;;;;;;2.80;0.70;;;;;;;;;;5049544;28;20032;-71
2023/07/05 10:39:52;;;;;;;6.45;0.90;;;;;;;;;;5059547;28;20046;-71
2023/07/05 10:42:18;;;;;;;2.95;0.50;;;;;;;;;;5048801;28;20047;-71
2023/07/05 10:44:44;;;;;;;3.58;0.80;;;;;;;;;;5072875;28;20057;-71
2023/07/05 10:47:12;;;;;;;3.97;0.93;;;;;;;;;;5052625;28;20036;-72
2023/07/05 10:49:38;;;;;;;2.03;0.70;;;;;;;;;;5053901;28;20028;-71
2023/07/05 10:52:07;;;;;;;12.15;1.13;;;;;;;;;;5050196;28;20037;-70
2023/07/05 10:54:45;;;;;;;11.27;1.17;;;;;;;;;;5040938;28;20029;-71
2023/07/05 10:57:14;;;;;;;5.05;1.17;;;;;;;;;;5059049;28;20055;-71
2023/07/05 10:59:43;;;;;;;5.18;1.52;;;;;;;;;;5052793;28;20017;-71
2023/07/05 11:02:12;;;;;;;6.82;1.55;;;;;;;;;;5035609;28;20059;-70
2023/07/05 11:04:39;;;;;;;3.80;0.90;;;;;;;;;;5044868;28;20070;-70
2023/07/05 11:07:10;;;;;;;6.00;1.02;;;;;;;;;;5051735;28;20046;-71
2023/07/05 11:09:40;;;;;;;5.15;0.93;;;;;;;;;;5046367;28;20090;-70
2023/07/05 11:12:21;;;;;;;5.82;1.20;;;;;;;;;;5054401;28;20025;-71
2023/07/05 11:14:48;;;;;;;7.55;1.00;;;;;;;;;;5051075;28;20115;-71
2023/07/05 11:17:22;;;;;;;6.53;1.17;;;;;;;;;;5051095;28;20588;-71
2023/07/05 11:19:48;;;;;;;5.55;1.30;;;;;;;;;;5048371;28;20041;-72
2023/07/05 11:22:33;;;;;;;9.75;1.05;;;;;;;;;;5053440;28;20062;-74
2023/07/05 11:24:59;;;;;;;8.52;1.83;;;;;;;;;;5051920;28;20041;-73
2023/07/05 11:27:25;;;;;;;10.20;1.83;;;;;;;;;;5053582;28;20466;-73
2023/07/05 11:29:54;;;;;;;10.18;1.70;;;;;;;;;;5061201;28;20041;-74
2023/07/05 11:32:26;;;;;;;8.32;1.95;;;;;;;;;;5050853;28;20424;-72
2023/07/05 11:34:53;;;;;;;9.13;1.83;;;;;;;;;;5046059;28;20037;-71
2023/07/05 11:37:20;;;;;;;16.67;2.67;;;;;;;;;;5053882;28;20518;-72
2023/07/05 11:39:50;;;;;;;6.60;1.98;;;;;;;;;;5060723;28;20071;-72
2023/07/05 11:42:16;;;;;;;15.80;2.25;;;;;;;;;;5055823;28;20033;-71
2023/07/05 11:44:46;;;;;;;18.60;2.58;;;;;;;;;;5060295;28;20047;-71
2023/07/05 11:47:34;;;;;;;16.45;2.88;;;;;;;;;;5044876;28;20135;-72
2023/07/05 11:50:08;;;;;;;10.13;2.17;;;;;;;;;;5041804;28;20049;-71
2023/07/05 11:52:35;;;;;;;14.65;2.53;;;;;;;;;;5046573;28;20045;-68
2023/07/05 11:55:04;;;;;;;13.63;3.08;;;;;;;;;;5040940;28;20550;-70
2023/07/05 11:57:37;;;;;;;11.00;1.90;;;;;;;;;;5049848;28;20051;-71
2023/07/05 12:00:03;;;;;;;10.68;2.45;;;;;;;;;;5047956;28;20029;-70
2023/07/05 12:02:35;;;;;;;9.02;2.35;;;;;;;;;;5034755;28;20494;-71
2023/07/05 12:05:03;;;;;;;7.20;2.03;;;;;;;;;;5036058;28;20163;-70
2023/07/05 12:07:31;;;;;;;13.07;2.50;;;;;;;;;;5042729;28;20028;-70
2023/07/05 12:09:57;;;;;;;13.20;3.25;;;;;;;;;;5046152;28;20036;-70
2023/07/05 12:12:23;;;;;;;13.25;3.42;;;;;;;;;;5044588;28;20037;-69
2023/07/05 12:14:49;;;;;;;9.23;2.65;;;;;;;;;;5038194;28;20037;-70
2023/07/05 12:17:17;;;;;;;17.13;3.03;;;;;;;;;;5034077;28;20041;-69
2023/07/05 12:19:44;;;;;;;15.77;3.13;;;;;;;;;;5052552;28;20029;-70
2023/07/05 12:22:18;;;;;;;10.68;2.10;;;;;;;;;;5059228;28;20494;-71
2023/07/05 12:24:47;;;;;;;11.32;2.45;;;;;;;;;;5057787;28;20062;-70
2023/07/05 12:27:20;;;;;;;16.77;6.82;;;;;;;;;;5059611;28;20516;-70
2023/07/05 12:29:49;;;;;;;12.20;3.25;;;;;;;;;;5042030;28;20526;-70
2023/07/05 12:32:17;;;;;;;17.17;2.92;;;;;;;;;;5052155;28;20126;-70
2023/07/05 12:34:44;;;;;;;11.82;2.45;;;;;;;;;;5039505;28;20174;-70
2023/07/05 12:37:10;;;;;;;13.52;2.67;;;;;;;;;;5038396;28;20617;-70
2023/07/05 12:39:41;;;;;;;11.00;2.78;;;;;;;;;;5054111;28;20032;-70
2023/07/05 12:42:14;;;;;;;10.60;2.55;;;;;;;;;;5052459;28;20478;-70
2023/07/05 12:44:40;;;;;;;12.60;2.33;;;;;;;;;;5049096;28;20533;-69
2023/07/05 12:47:13;;;;;;;13.93;2.55;;;;;;;;;;5042126;28;20079;-70
2023/07/05 12:49:39;;;;;;;15.55;2.70;;;;;;;;;;5065351;28;20034;-70
2023/07/05 12:52:16;;;;;;;13.68;2.45;;;;;;;;;;5045221;28;20273;-70
2023/07/05 12:54:43;;;;;;;20.75;2.47;;;;;;;;;;5061935;28;20100;-69
2023/07/05 12:57:17;;;;;;;14.20;2.08;;;;;;;;;;5052280;28;20040;-70
2023/07/05 12:59:43;;;;;;;18.48;4.05;;;;;;;;;;5051686;28;20403;-70
2023/07/05 13:02:13;;;;;;;12.23;2.15;;;;;;;;;;5050811;28;20049;-70
2023/07/05 13:04:43;;;;;;;7.88;2.25;;;;;;;;;;5048003;28;20051;-69
2023/07/05 13:07:14;;;;;;;14.80;2.65;;;;;;;;;;5053393;28;20145;-70
2023/07/05 13:09:40;;;;;;;12.63;3.05;;;;;;;;;;5053016;28;20503;-70
2023/07/05 13:12:09;;;;;;;11.35;1.88;;;;;;;;;;5056836;28;20108;-70
2023/07/05 13:14:36;;;;;;;9.55;2.10;;;;;;;;;;5052133;28;20041;-69
2023/07/05 13:17:14;;;;;;;16.98;2.42;;;;;;;;;;5063076;28;20485;-69
2023/07/05 13:19:49;;;;;;;14.02;1.80;;;;;;;;;;5057947;28;20177;-69
2023/07/05 13:22:23;;;;;;;13.90;2.10;;;;;;;;;;5053364;28;20094;-70
2023/07/05 13:24:50;;;;;;;12.10;2.25;;;;;;;;;;5059865;28;20389;-69
2023/07/05 13:27:36;;;;;;;17.17;2.55;;;;;;;;;;5054937;28;20567;-69
2023/07/05 13:30:10;;;;;;;16.75;2.78;;;;;;;;;;5059336;28;20039;-69
2023/07/05 13:32:42;;;;;;;16.10;2.70;;;;;;;;;;5049480;28;20024;-69
2023/07/05 13:35:08;;;;;;;18.33;2.50;;;;;;;;;;5060424;28;20029;-69
2023/07/05 13:37:34;;;;;;;23.15;3.15;;;;;;;;;;5055515;28;20040;-69
2023/07/05 13:40:09;;;;;;;14.63;3.15;;;;;;;;;;5056649;28;20036;-69
2023/07/05 13:42:36;;;;;;;20.65;3.67;;;;;;;;;;5056271;28;20021;-69
2023/07/05 13:45:03;;;;;;;23.05;3.15;;;;;;;;;;5063365;28;20477;-69
2023/07/05 13:47:29;;;;;;;22.27;3.55;;;;;;;;;;5053648;28;20037;-69
2023/07/05 13:49:55;;;;;;;16.73;3.90;;;;;;;;;;5056337;28;20126;-69
2023/07/05 13:52:21;;;;;;;11.52;2.50;;;;;;;;;;5055907;28;20067;-69
2023/07/05 13:54:48;;;;;;;17.27;3.22;;;;;;;;;;5059440;28;20057;-69
2023/07/05 13:57:18;;;;;;;12.38;2.10;;;;;;;;;;5056807;28;20356;-70
2023/07/05 13:59:44;;;;;;;19.17;2.90;;;;;;;;;;5056619;28;20384;-69
2023/07/05 14:02:30;;;;;;;11.15;2.33;;;;;;;;;;5050492;28;20052;-70
2023/07/05 14:04:57;;;;;;;12.43;2.22;;;;;;;;;;5042669;28;20029;-70
2023/07/05 14:07:23;;;;;;;13.48;2.97;;;;;;;;;;5040150;28;20029;-69
2023/07/05 14:09:49;;;;;;;9.68;2.22;;;;;;;;;;5056115;28;20107;-69
2023/07/05 14:12:19;;;;;;;11.75;2.72;;;;;;;;;;5049888;28;20035;-71
2023/07/05 14:14:45;;;;;;;10.55;2.58;;;;;;;;;;5047489;28;20065;-69
2023/07/05 14:17:21;;;;;;;12.50;2.92;;;;;;;;;;5048328;28;20056;-72
2023/07/05 14:19:47;;;;;;;12.20;2.70;;;;;;;;;;5057473;28;20047;-68
2023/07/05 14:22:16;;;;;;;12.35;2.60;;;;;;;;;;5063682;28;20029;-69
2023/07/05 14:24:43;;;;;;;14.65;2.83;;;;;;;;;;5052221;28;20104;-68
2023/07/05 14:27:20;;;;;;;13.85;2.92;;;;;;;;;;5052730;28;20033;-69
2023/07/05 14:29:47;;;;;;;12.40;3.35;;;;;;;;;;5031591;28;20047;-69
2023/07/05 14:32:14;;;;;;;10.02;2.85;;;;;;;;;;5047537;28;20028;-69
2023/07/05 14:34:40;;;;;;;6.93;2.08;;;;;;;;;;5035709;28;20057;-69
2023/07/05 14:37:06;;;;;;;16.27;2.67;;;;;;;;;;5042643;28;20491;-69
2023/07/05 14:39:32;;;;;;;12.80;2.92;;;;;;;;;;5040587;28;20021;-69
2023/07/05 14:41:58;;;;;;;10.20;3.15;;;;;;;;;;5041960;28;20037;-70
2023/07/05 14:44:24;;;;;;;9.20;2.45;;;;;;;;;;5047619;28;20110;-71